Greater Rochester International Airport Rochester US
ICAO: KROC
IATA: ROC
Category: Large
Scheduled Services: Yes

Elevation: 559 ft
TransAlt. 18000 ft.

Airport Communications:
APP/DEP:119.55
ATIS:124.825
CLNC DEL:118.3
GND:121.7
ARNG OPS:41
BUFFALO RDO:122.6
TWR:118.3
UNICOM:122.95

KROC Zoom In..

If you have problems with the map follow the link
https://www.worldairports.se/pages/airport.php?
ICAO=KROC

Runways:

(A) RW 04 length 8001 ft width 150 ft
ILS 110.70 / hdg 41

(B) RW 07 length 4000 ft width 100 ft
---- / hdg 73

(C) RW 10 length 6401 ft width 150 ft
---- / hdg 98

(D) RW 22 length 8001 ft width 150 ft
ILS 110.70 / hdg 221

(E) RW 25 length 4000 ft width 100 ft
---- / hdg 253

(F) RW 28 length 6401 ft width 150 ft
ILS 109.50 / hdg 278

Location; KROC
Day. 25 / Time. 08.54 Zulu
* Altimeter: 30.01
* Temperature: 04° c. 39.2°f.
* Wind from: 150° Speed 07 kn.
Dewpoint: -04° c.
Visibility: 10 Statute Miles.
Clouds: Overcast 5000 ft.
Conditions: Light Rain.

KROC 250854Z 15007KT 10SM -RA OVC050 04/M04 A3001 RMK AO2 SLP168 P0005 60006 T00441044 56009


Wind From 150°
Speed 07 kn.

 
 
jpsmedia worldairports.se 2020   terms of use